Matagorda, TX

12:02 PM CDT on July 24, 2014 (GMT -0500)
Selkirk Island (KTXBAYCI3) Elev 43 ft | 28.77 °N, 95.99 °W | Change Station
Active Advisory: Special Statement Active Notice: Local Storm Report

Current weather conditions updated 21 seconds ago

Mostly Cloudy
Mostly Cloudy
90.7 °F
Feels Like 106 °F
N
2.7
Wind Variable Wind from SSW

Today is forecast to be Cooler than yesterday. Scattered thunderstorms possible.

Today
High -- | Low -- °F
--% Chance of Precip.
Yesterday
High -- | Low -- °F
Precip. -- in
6:40 AM 8:19 PM
Waning Crescent, 5% visible
Pressure 30.01 in
Visibility 10.0 miles
Clouds Few 3000 ft
Scattered Clouds 4000 ft
Heat Index 106 °F
Dew Point 78 °F
Humidity 67%
Rainfall 0.18 in
Snow Depth Not available.
UV 9 out of 12
Pollen 3.80 out of 12
Air Quality Not available.
Flu Activity Not available.
METAR KPSX 241653Z AUTO 25004KT 10SM VCTS FEW030 SCT040 31/24 A3002 RMK AO2 LTG DSNT SW AND W RAE14 SLP163 P0000 T03060239

More Conditions Fewer Conditions

Pressure 30.01 in
Visibility 10.0 miles
Clouds Few 3000 ft
Scattered Clouds 4000 ft
Heat Index 106 °F
Dew Point 78 °F
Humidity 67%
Rainfall 0.18 in
Snow Depth Not available.
UV 9 out of 12
Pollen 3.80 out of 12
Air Quality Not available.
Flu Activity Not available.
METAR KPSX 241653Z AUTO 25004KT 10SM VCTS FEW030 SCT040 31/24 A3002 RMK AO2 LTG DSNT SW AND W RAE14 SLP163 P0000 T03060239

More Conditions Fewer Conditions

10-Day Weather Forecast

Almanac

Astronomy

Jul. 24, 2014 Rise Set
Actual Time 6:40 AM CDT 8:19 PM CDT
Civil Twilight 6:14 AM CDT 8:45 PM CDT
Nautical Twilight 5:43 AM CDT 9:16 PM CDT
Astronomical Twilight 5:10 AM CDT 9:49 PM CDT
Moon 4:47 AM CDT 6:37 PM CDT
Length of Visible Light 14h 30m
Length of Day
13h 38m
Tomorrow will be 1m 6s shorter.
Waning Crescent, 5% of the Moon is Illuminated
Today
Waning Crescent
Jul 26
New
Aug 3
First Quarter
Aug 10
Full
Aug 17
Last Quarter

Today's Extremes

State Highs State Lows

Community

WunderPhotos

Upload Photos

1,737,071 photos uploaded!

Nearby

Snow Depth

Station Depth Elevation
No new snow has been reported.

Earthquake Activity

City Distance Mag. Time & Date
No recent earthquake activity has been reported nearby.
Minimum magnitude displayed is 2.5.

Coastal Water Temperatures

Place Temperature
Seadrift, TX 84.9 °F
Rockport, TX 88.0 °F
USCG Freeport, TX 86.0 °F

Nearby Weather Stations

Station Location Temp. Heat Index Dew Point Humidity Wind Precip. Elev Updated Type
Matagorda, TX 86.4 °F 99 °F 78 °F 77% NW  at  1.0 mph 0.00 in / hr 10 ft 11:42 AM EDT Rapid Fire
Selkirk Island, Bay City, TX 90.7 °F 106 °F 78 °F 67% SSW  at  2.7 mph - / hr 43 ft 12:02 PM CDT Normal
MesoWest BAYCTY , Bay City, TX 94 °F 90 °F - - North  at  - 0.00 in / hr 48 ft 10:50 AM CDT MADIS
Caney Creek Haven, Sargent, TX 89.2 °F 102 °F 77 °F 67% WSW  at  2.0 mph 0.00 in / hr 10 ft 12:02 PM CDT Rapid Fire

Show More Stations Show Fewer Stations